createdAt,value
2019-02-15T00:01:26.932Z,103252.10
2019-02-15T00:04:00.273Z,103259.08
2019-02-15T00:06:31.404Z,103262.56
2019-02-15T00:09:04.647Z,103258.81
2019-02-15T00:11:37.486Z,103261.39
2019-02-15T00:14:08.670Z,103259.05
2019-02-15T00:16:40.289Z,103252.12
2019-02-15T00:19:46.221Z,103254.84
2019-02-15T00:22:17.974Z,103259.48
2019-02-15T00:24:49.643Z,103255.98
2019-02-15T00:27:20.863Z,103269.21
2019-02-15T00:29:52.647Z,103264.44
2019-02-15T00:32:23.975Z,103263.89
2019-02-15T00:34:55.943Z,103263.51
2019-02-15T00:37:28.521Z,103260.02
2019-02-15T00:39:59.950Z,103264.07
2019-02-15T00:42:31.498Z,103235.80
2019-02-15T00:45:03.727Z,103231.86
2019-02-15T00:47:39.491Z,103233.06
2019-02-15T00:50:23.724Z,103229.30
2019-02-15T00:53:04.063Z,103230.30
2019-02-15T00:55:54.739Z,103219.37
2019-02-15T00:58:43.656Z,103221.39
2019-02-15T01:01:22.286Z,103226.66
2019-02-15T01:04:04.229Z,103228.05
2019-02-15T01:06:41.766Z,103235.68
2019-02-15T01:09:37.800Z,103228.23
2019-02-15T01:12:38.089Z,103233.16
2019-02-15T01:15:09.988Z,103234.50
2019-02-15T01:17:41.904Z,103229.03
2019-02-15T01:20:13.079Z,103232.59
2019-02-15T01:22:44.603Z,103230.42
2019-02-15T01:25:18.124Z,103240.77
2019-02-15T01:28:02.802Z,103243.81
2019-02-15T01:30:57.021Z,103244.67
2019-02-15T01:33:46.942Z,103246.73
2019-02-15T01:36:46.164Z,103243.94
2019-02-15T01:39:27.816Z,103243.86
2019-02-15T01:42:28.322Z,103249.14
2019-02-15T01:45:10.998Z,103252.30
2019-02-15T01:47:51.834Z,103256.41
2019-02-15T01:50:23.774Z,103252.12
2019-02-15T01:52:55.529Z,103253.78
2019-02-15T01:55:26.706Z,103246.98
2019-02-15T01:57:59.427Z,103235.33
2019-02-15T02:00:33.303Z,103231.64
2019-02-15T02:03:07.308Z,103235.12
2019-02-15T02:05:39.157Z,103227.63
2019-02-15T02:08:16.175Z,103228.10
2019-02-15T02:10:48.317Z,103234.02
2019-02-15T02:13:19.955Z,103230.08
2019-02-15T02:15:51.786Z,103230.00
2019-02-15T02:18:23.239Z,103219.30
2019-02-15T02:20:55.384Z,103219.95
2019-02-15T02:23:26.441Z,103221.67
2019-02-15T02:25:59.360Z,103216.97
2019-02-15T02:28:31.878Z,103221.55
2019-02-15T02:31:03.363Z,103224.19
2019-02-15T02:33:34.914Z,103214.59
2019-02-15T02:36:06.400Z,103216.22
2019-02-15T02:38:37.808Z,103208.28
2019-02-15T02:41:09.063Z,103203.03
2019-02-15T02:43:40.178Z,103204.36
2019-02-15T02:46:11.683Z,103203.94
2019-02-15T02:48:43.824Z,103212.31
2019-02-15T02:51:15.788Z,103207.96
2019-02-15T02:53:47.669Z,103208.31
2019-02-15T02:56:19.919Z,103209.05
2019-02-15T02:58:51.611Z,103211.02
2019-02-15T03:01:23.240Z,103197.94
2019-02-15T03:03:54.710Z,103196.64
2019-02-15T03:06:25.905Z,103198.77
2019-02-15T03:08:57.474Z,103199.05
2019-02-15T03:11:28.686Z,103202.25
2019-02-15T03:14:10.716Z,103197.59
2019-02-15T03:16:34.663Z,103201.03
2019-02-15T03:19:06.254Z,103195.06
2019-02-15T03:21:37.747Z,103194.58
2019-02-15T03:24:08.849Z,103191.74
2019-02-15T03:26:40.557Z,103197.21
2019-02-15T03:29:12.017Z,103197.70
2019-02-15T03:31:43.342Z,103187.61
2019-02-15T03:34:15.243Z,103190.08
2019-02-15T03:37:02.239Z,103184.21
2019-02-15T03:39:52.797Z,103184.33
2019-02-15T03:42:25.151Z,103168.86
2019-02-15T03:44:56.809Z,103170.56
2019-02-15T03:47:29.027Z,103177.56
2019-02-15T03:50:00.803Z,103182.45
2019-02-15T03:52:32.355Z,103179.27
2019-02-15T03:55:03.734Z,103184.58
2019-02-15T03:57:35.325Z,103181.97
2019-02-15T04:00:07.931Z,103180.60
2019-02-15T04:02:39.444Z,103185.25
2019-02-15T04:05:11.278Z,103178.73
2019-02-15T04:07:42.908Z,103182.66
2019-02-15T04:10:14.384Z,103178.19
2019-02-15T04:12:45.516Z,103171.95
2019-02-15T04:15:16.643Z,103182.69
2019-02-15T04:17:48.519Z,103178.38
2019-02-15T04:20:20.446Z,103179.80
2019-02-15T04:22:52.602Z,103181.88
2019-02-15T04:25:31.751Z,103177.11
2019-02-15T04:28:03.807Z,103183.29
2019-02-15T04:30:35.393Z,103185.33
2019-02-15T04:33:07.590Z,103192.81
2019-02-15T04:35:39.218Z,103189.93
2019-02-15T04:38:10.353Z,103188.58
2019-02-15T04:40:42.186Z,103198.62
2019-02-15T04:43:13.433Z,103191.28
2019-02-15T04:45:45.560Z,103193.58
2019-02-15T04:48:17.126Z,103186.95
2019-02-15T04:50:48.639Z,103183.36
2019-02-15T04:53:20.281Z,103191.25
2019-02-15T04:55:52.282Z,103191.72
2019-02-15T04:58:24.105Z,103185.50
2019-02-15T05:00:55.869Z,103183.45
2019-02-15T05:03:27.801Z,103183.11
2019-02-15T05:05:59.634Z,103186.44
2019-02-15T05:08:31.188Z,103185.95
2019-02-15T05:11:02.747Z,103173.66
2019-02-15T05:13:34.137Z,103180.41
2019-02-15T05:16:05.306Z,103183.82
2019-02-15T05:18:37.600Z,103182.34
2019-02-15T05:21:09.690Z,103186.98
2019-02-15T05:23:41.179Z,103183.05
2019-02-15T05:26:12.394Z,103180.97
2019-02-15T05:28:44.025Z,103187.44
2019-02-15T05:31:15.718Z,103187.11
2019-02-15T05:33:48.109Z,103181.31
2019-02-15T05:36:20.072Z,103183.86
2019-02-15T05:38:52.425Z,103181.87
2019-02-15T05:41:24.016Z,103179.67
2019-02-15T05:43:55.614Z,103181.44
2019-02-15T05:46:27.179Z,103181.11
2019-02-15T05:48:58.347Z,103185.20
2019-02-15T05:51:30.069Z,103183.50
2019-02-15T05:54:01.908Z,103185.25
2019-02-15T05:56:33.117Z,103190.98
2019-02-15T05:59:04.732Z,103194.73
2019-02-15T06:01:36.080Z,103187.80
2019-02-15T06:04:07.180Z,103197.06
2019-02-15T06:06:38.309Z,103200.73
2019-02-15T06:09:09.710Z,103196.94
2019-02-15T06:11:50.970Z,103196.27
2019-02-15T06:14:22.426Z,103202.27
2019-02-15T06:16:53.526Z,103206.17
2019-02-15T06:19:25.088Z,103206.10
2019-02-15T06:21:56.380Z,103203.61
2019-02-15T06:24:27.577Z,103201.56
2019-02-15T06:26:59.474Z,103210.87
2019-02-15T06:29:31.657Z,103207.83
2019-02-15T06:32:03.363Z,103202.34
2019-02-15T06:34:34.568Z,103202.28
2019-02-15T06:37:06.129Z,103206.05
2019-02-15T06:39:37.895Z,103206.52
2019-02-15T06:42:15.602Z,103205.89
2019-02-15T06:44:47.616Z,103211.62
2019-02-15T06:47:19.374Z,103205.45
2019-02-15T06:49:51.414Z,103216.12
2019-02-15T06:52:23.791Z,103216.53
2019-02-15T06:54:56.889Z,103217.62
2019-02-15T06:57:30.770Z,103217.15
2019-02-15T07:00:21.016Z,103211.55
2019-02-15T07:02:59.322Z,103220.58
2019-02-15T07:05:31.055Z,103223.16
2019-02-15T07:08:02.604Z,103228.94
2019-02-15T07:10:34.809Z,103229.09
2019-02-15T07:13:06.407Z,103232.88
2019-02-15T07:15:39.028Z,103223.69
2019-02-15T07:18:10.563Z,103227.73
2019-02-15T07:20:42.108Z,103237.36
2019-02-15T07:23:14.109Z,103227.17
2019-02-15T07:25:46.376Z,103232.05
2019-02-15T07:29:55.146Z,103236.14
2019-02-15T07:32:26.725Z,103236.19
2019-02-15T07:34:58.285Z,103231.61
2019-02-15T07:37:30.057Z,103232.13
2019-02-15T07:40:01.571Z,103227.79
2019-02-15T07:42:33.653Z,103231.84
2019-02-15T07:45:05.129Z,103228.09
2019-02-15T07:47:37.497Z,103221.45
2019-02-15T07:50:12.857Z,103223.98
2019-02-15T07:52:45.614Z,103226.69
2019-02-15T07:55:17.037Z,103218.01
2019-02-15T07:57:48.724Z,103215.16
2019-02-15T08:00:20.258Z,103226.17
2019-02-15T08:02:51.374Z,103223.30
2019-02-15T08:05:23.706Z,103230.63
2019-02-15T08:07:54.882Z,103228.89
2019-02-15T08:10:26.458Z,103227.42
2019-02-15T08:12:57.963Z,103219.80
2019-02-15T08:15:35.904Z,103229.45
2019-02-15T08:18:03.273Z,103228.55
2019-02-15T08:20:34.363Z,103224.08
2019-02-15T08:23:05.511Z,103218.70
2019-02-15T08:25:37.240Z,103209.52
2019-02-15T08:28:09.597Z,103213.83
2019-02-15T08:30:41.274Z,103218.55
2019-02-15T08:33:12.860Z,103210.22
2019-02-15T08:35:48.605Z,103215.67
2019-02-15T08:38:20.299Z,103220.13
2019-02-15T08:40:51.518Z,103215.15
2019-02-15T08:43:23.070Z,103206.34
2019-02-15T08:46:00.595Z,103207.27
2019-02-15T08:48:28.440Z,103204.14
2019-02-15T08:50:59.663Z,103206.75
2019-02-15T08:53:31.204Z,103203.77
2019-02-15T08:56:02.926Z,103205.14
2019-02-15T08:58:34.621Z,103209.63
2019-02-15T09:01:05.776Z,103203.84
2019-02-15T09:03:37.185Z,103195.38
2019-02-15T09:06:08.269Z,103198.42
2019-02-15T09:08:42.410Z,103195.77
2019-02-15T09:11:13.656Z,103195.34
2019-02-15T09:13:46.265Z,103190.49
2019-02-15T09:16:20.140Z,103186.49
2019-02-15T09:18:52.067Z,103184.36
2019-02-15T09:21:23.991Z,103185.27
2019-02-15T09:23:56.827Z,103186.16
2019-02-15T09:26:27.930Z,103180.83
2019-02-15T09:29:03.765Z,103179.07
2019-02-15T09:31:36.066Z,103183.97
2019-02-15T09:34:07.732Z,103187.05
2019-02-15T09:36:39.682Z,103181.70
2019-02-15T09:39:10.966Z,103186.17
2019-02-15T09:41:44.260Z,103179.48
2019-02-15T09:44:16.008Z,103181.72
2019-02-15T09:46:47.268Z,103181.25
2019-02-15T09:49:20.448Z,103177.24
2019-02-15T09:51:52.674Z,103174.98
2019-02-15T09:54:25.191Z,103169.61
2019-02-15T09:56:56.777Z,103171.42
2019-02-15T09:59:28.683Z,103163.79
2019-02-15T10:02:02.129Z,103164.64
2019-02-15T10:04:39.310Z,103158.39
2019-02-15T10:07:11.241Z,103154.39
2019-02-15T10:09:44.930Z,103152.55
2019-02-15T10:12:16.459Z,103146.73
2019-02-15T10:14:48.952Z,103140.00
2019-02-15T10:17:21.322Z,103145.74
2019-02-15T10:19:53.451Z,103133.66
2019-02-15T10:22:24.730Z,103125.17
2019-02-15T10:24:57.014Z,103124.27
2019-02-15T10:27:28.494Z,103134.05
2019-02-15T10:30:02.377Z,103133.11
2019-02-15T10:32:35.614Z,103139.80
2019-02-15T10:35:08.640Z,103133.55
2019-02-15T10:37:40.206Z,103132.62
2019-02-15T10:40:12.075Z,103132.20
2019-02-15T10:42:43.892Z,103138.85
2019-02-15T10:45:17.596Z,103129.00
2019-02-15T10:47:50.590Z,103135.66
2019-02-15T10:50:24.825Z,103122.58
2019-02-15T10:52:56.769Z,103116.41
2019-02-15T10:55:28.598Z,103107.94
2019-02-15T10:58:03.069Z,103106.91
2019-02-15T11:00:34.551Z,103112.18
2019-02-15T11:03:06.665Z,103108.56
2019-02-15T11:05:38.036Z,103109.05
2019-02-15T11:08:09.715Z,103105.05
2019-02-15T11:10:43.041Z,103105.88
2019-02-15T11:13:14.803Z,103100.84
2019-02-15T11:15:46.430Z,103095.35
2019-02-15T11:18:19.388Z,103093.05
2019-02-15T11:20:52.419Z,103097.13
2019-02-15T11:23:24.233Z,103093.59
2019-02-15T11:25:57.302Z,103093.54
2019-02-15T11:28:28.674Z,103084.42
2019-02-15T11:31:02.062Z,103080.80
2019-02-15T11:33:35.084Z,103084.80
2019-02-15T11:36:07.512Z,103075.84
2019-02-15T11:38:42.312Z,103084.84
2019-02-15T11:41:15.679Z,103075.79
2019-02-15T11:43:48.419Z,103079.77
2019-02-15T11:46:20.888Z,103067.54
2019-02-15T11:48:52.543Z,103054.47
2019-02-15T11:51:42.815Z,103059.38
2019-02-15T11:54:23.401Z,103047.81
2019-02-15T11:57:12.049Z,103044.50
2019-02-15T11:59:44.104Z,103046.45
2019-02-15T12:02:16.026Z,103042.21
2019-02-15T12:04:48.203Z,103038.98
2019-02-15T12:07:28.653Z,103039.34
2019-02-15T12:10:14.157Z,103040.99
2019-02-15T12:12:48.073Z,103036.06
2019-02-15T12:15:20.031Z,103029.23
2019-02-15T12:17:52.205Z,103026.03
2019-02-15T12:20:26.679Z,103020.95
2019-02-15T12:22:59.596Z,103022.53
2019-02-15T12:25:31.971Z,103019.47
2019-02-15T12:28:04.541Z,103020.16
2019-02-15T12:30:57.031Z,103015.47
2019-02-15T12:33:31.117Z,103007.22
2019-02-15T12:36:02.852Z,103011.02
2019-02-15T12:38:34.716Z,103006.68
2019-02-15T12:41:07.807Z,102995.92
2019-02-15T12:43:56.402Z,102983.97
2019-02-15T12:46:30.958Z,102977.45
2019-02-15T12:49:03.177Z,102979.39
2019-02-15T12:51:36.852Z,102969.78
2019-02-15T12:54:08.886Z,102969.56
2019-02-15T12:56:45.824Z,102959.63
2019-02-15T12:59:21.102Z,102973.36
2019-02-15T13:01:55.666Z,102969.88
2019-02-15T13:04:29.243Z,102955.91
2019-02-15T13:07:03.344Z,102950.36
2019-02-15T13:09:38.388Z,102951.50
2019-02-15T13:12:10.588Z,102947.95
2019-02-15T13:14:45.239Z,102957.09
2019-02-15T13:17:24.834Z,102946.08
2019-02-15T13:20:01.475Z,102938.48
2019-02-15T13:22:38.932Z,102936.41
2019-02-15T13:25:11.395Z,102934.59
2019-02-15T13:27:44.116Z,102934.38
2019-02-15T13:30:16.915Z,102932.98
2019-02-15T13:32:48.619Z,102930.85
2019-02-15T13:35:24.875Z,102927.16
2019-02-15T13:37:58.917Z,102921.77
2019-02-15T13:40:31.152Z,102922.34
2019-02-15T13:43:03.227Z,102910.92
2019-02-15T13:45:35.915Z,102919.64
2019-02-15T13:48:08.957Z,102913.52
2019-02-15T13:50:43.010Z,102909.39
2019-02-15T13:53:19.576Z,102911.00
2019-02-15T13:55:51.459Z,102902.27
2019-02-15T14:01:18.861Z,102893.11
2019-02-15T14:03:51.788Z,102894.37
2019-02-15T14:06:24.587Z,102892.54
2019-02-15T14:08:56.350Z,102884.64
2019-02-15T14:11:34.154Z,102886.85
2019-02-15T14:14:06.513Z,102883.16
2019-02-15T14:16:38.066Z,102880.48
2019-02-15T14:19:13.209Z,102878.12
2019-02-15T14:21:45.282Z,102875.43
2019-02-15T14:24:20.155Z,102874.65
2019-02-15T14:26:53.165Z,102870.70
2019-02-15T14:29:24.952Z,102871.14
2019-02-15T14:31:58.121Z,102867.09
2019-02-15T14:34:29.405Z,102861.19
2019-02-15T14:37:03.142Z,102855.23
2019-02-15T14:39:34.463Z,102852.28
2019-02-15T14:42:08.559Z,102849.34
2019-02-15T14:44:44.042Z,102843.04
2019-02-15T14:47:15.694Z,102843.61
2019-02-15T14:49:48.089Z,102839.63
2019-02-15T14:52:20.554Z,102838.80
2019-02-15T14:54:55.695Z,102834.84
2019-02-15T14:57:47.636Z,102834.41
2019-02-15T15:00:41.223Z,102831.28
2019-02-15T15:03:13.071Z,102826.77
2019-02-15T15:05:50.857Z,102822.91
2019-02-15T15:08:23.404Z,102825.08
2019-02-15T15:10:56.234Z,102816.27
2019-02-15T15:13:30.965Z,102812.28
2019-02-15T15:16:04.445Z,102806.94
2019-02-15T15:18:37.165Z,102800.55
2019-02-15T15:21:31.216Z,102802.47
2019-02-15T15:24:04.164Z,102797.69
2019-02-15T15:26:35.667Z,102791.84
2019-02-15T15:29:31.082Z,102791.45
2019-02-15T15:32:04.735Z,102782.42
2019-02-15T15:34:38.546Z,102787.92
2019-02-15T15:37:16.454Z,102789.23
2019-02-15T15:39:48.212Z,102778.13
2019-02-15T15:42:26.369Z,102774.73
2019-02-15T15:44:59.170Z,102772.48
2019-02-15T15:47:33.292Z,102772.45
2019-02-15T15:50:07.079Z,102774.05
2019-02-15T15:52:39.636Z,102767.71
2019-02-15T15:55:12.850Z,102764.89
2019-02-15T15:57:45.734Z,102762.84
2019-02-15T16:00:18.881Z,102761.64
2019-02-15T16:02:50.253Z,102759.87
2019-02-15T16:05:24.238Z,102756.36
2019-02-15T16:07:57.590Z,102760.43
2019-02-15T16:10:29.764Z,102754.22
2019-02-15T16:13:01.650Z,102749.80
2019-02-15T16:15:33.208Z,102749.02
2019-02-15T16:18:05.138Z,102752.41
2019-02-15T16:20:39.781Z,102752.48
2019-02-15T16:23:12.982Z,102745.50
2019-02-15T16:25:47.550Z,102748.93
2019-02-15T16:28:37.810Z,102748.91
2019-02-15T16:31:12.812Z,102741.81
2019-02-15T16:33:45.054Z,102746.34
2019-02-15T16:36:16.529Z,102748.16
2019-02-15T16:38:49.569Z,102740.66
2019-02-15T16:41:25.011Z,102740.14
2019-02-15T16:43:58.255Z,102736.89
2019-02-15T16:46:31.420Z,102742.16
2019-02-15T16:49:03.927Z,102742.84
2019-02-15T16:51:38.142Z,102745.91
2019-02-15T16:54:11.635Z,102741.62
2019-02-15T16:56:44.047Z,102741.73
2019-02-15T16:59:18.036Z,102737.14
2019-02-15T17:01:50.261Z,102742.58
2019-02-15T17:04:21.973Z,102738.99
2019-02-15T17:06:53.798Z,102734.61
2019-02-15T17:09:26.423Z,102730.91
2019-02-15T17:11:59.024Z,102727.91
2019-02-15T17:14:31.461Z,102735.59
2019-02-15T17:17:02.786Z,102730.80
2019-02-15T17:19:34.856Z,102726.33
2019-02-15T17:22:06.564Z,102724.48
2019-02-15T17:24:38.752Z,102722.05
2019-02-15T17:27:10.398Z,102716.47
2019-02-15T17:29:42.291Z,102721.47
2019-02-15T17:32:14.494Z,102710.96
2019-02-15T17:34:46.658Z,102711.71
2019-02-15T17:37:20.235Z,102713.28
2019-02-15T17:39:52.332Z,102698.19
2019-02-15T17:42:24.664Z,102706.31
2019-02-15T17:44:56.878Z,102705.40
2019-02-15T17:47:29.515Z,102703.25
2019-02-15T17:50:02.327Z,102696.52
2019-02-15T17:52:37.906Z,102702.31
2019-02-15T17:58:16.990Z,102694.94
2019-02-15T18:00:49.148Z,102690.84
2019-02-15T18:03:20.875Z,102692.31
2019-02-15T18:05:53.489Z,102691.88
2019-02-15T18:08:24.946Z,102689.03
2019-02-15T18:10:58.624Z,102684.03
2019-02-15T18:13:30.337Z,102685.81
2019-02-15T18:16:02.381Z,102684.22
2019-02-15T18:18:34.874Z,102677.16
2019-02-15T18:21:06.198Z,102679.03
2019-02-15T18:23:37.877Z,102674.86
2019-02-15T18:26:11.242Z,102678.27
2019-02-15T18:28:42.929Z,102671.87
2019-02-15T18:31:19.203Z,102668.91
2019-02-15T18:33:50.382Z,102672.60
2019-02-15T18:36:23.010Z,102671.81
2019-02-15T18:38:54.215Z,102670.91
2019-02-15T18:41:27.041Z,102669.55
2019-02-15T18:43:59.132Z,102665.52
2019-02-15T18:46:31.421Z,102662.76
2019-02-15T18:49:03.580Z,102659.61
2019-02-15T18:51:36.023Z,102659.46
2019-02-15T18:54:09.046Z,102652.66
2019-02-15T18:56:42.729Z,102653.41
2019-02-15T18:59:14.652Z,102648.17
2019-02-15T19:01:46.263Z,102649.48
2019-02-15T19:04:18.524Z,102645.62
2019-02-15T19:06:50.158Z,102645.03
2019-02-15T19:09:22.358Z,102646.34
2019-02-15T19:11:54.317Z,102643.09
2019-02-15T19:14:26.199Z,102642.69
2019-02-15T19:16:57.983Z,102640.63
2019-02-15T19:19:30.247Z,102646.39
2019-02-15T19:22:03.131Z,102636.92
2019-02-15T19:24:35.652Z,102639.14
2019-02-15T19:27:07.533Z,102639.10
2019-02-15T19:29:40.218Z,102638.30
2019-02-15T19:32:11.562Z,102629.10
2019-02-15T19:34:44.732Z,102629.48
2019-02-15T19:37:16.498Z,102622.22
2019-02-15T19:39:48.460Z,102624.30
2019-02-15T19:42:24.833Z,102623.87
2019-02-15T19:44:56.436Z,102619.00
2019-02-15T19:47:29.544Z,102617.47
2019-02-15T19:50:03.323Z,102615.61
2019-02-15T19:52:36.986Z,102616.25
2019-02-15T19:55:09.396Z,102618.46
2019-02-15T19:57:40.669Z,102619.42
2019-02-15T20:00:15.281Z,102619.02
2019-02-15T20:02:48.338Z,102618.20
2019-02-15T20:05:20.198Z,102618.39
2019-02-15T20:07:52.948Z,102613.39
2019-02-15T20:10:25.882Z,102616.48
2019-02-15T20:12:58.204Z,102614.32
2019-02-15T20:15:30.169Z,102613.88
2019-02-15T20:18:01.499Z,102606.64
2019-02-15T20:20:34.320Z,102607.27
2019-02-15T20:23:05.970Z,102605.58
2019-02-15T20:25:38.097Z,102613.80
2019-02-15T20:28:14.010Z,102609.59
2019-02-15T20:30:44.980Z,102604.03
2019-02-15T20:33:16.345Z,102608.08
2019-02-15T20:35:48.800Z,102605.27
2019-02-15T20:38:20.455Z,102601.78
2019-02-15T20:40:52.420Z,102596.89
2019-02-15T20:43:25.298Z,102591.41
2019-02-15T20:45:57.689Z,102583.09
2019-02-15T20:48:30.139Z,102583.16
2019-02-15T20:51:02.516Z,102580.89
2019-02-15T20:53:33.950Z,102580.08
2019-02-15T20:56:07.315Z,102576.61
2019-02-15T20:58:39.799Z,102577.58
2019-02-15T21:01:31.190Z,102574.45
2019-02-15T21:04:04.364Z,102571.80
2019-02-15T21:06:36.504Z,102561.98
2019-02-15T21:09:09.941Z,102570.22
2019-02-15T21:11:42.102Z,102557.25
2019-02-15T21:14:16.731Z,102559.91
2019-02-15T21:16:48.723Z,102558.87
2019-02-15T21:19:20.293Z,102561.67
2019-02-15T21:21:52.816Z,102560.32
2019-02-15T21:24:24.487Z,102556.38
2019-02-15T21:26:56.915Z,102554.12
2019-02-15T21:29:28.889Z,102548.81
2019-02-15T21:32:01.134Z,102540.14
2019-02-15T21:34:34.646Z,102539.73
2019-02-15T21:37:18.353Z,102535.72
2019-02-15T21:39:50.490Z,102532.64
2019-02-15T21:42:21.789Z,102526.77
2019-02-15T21:44:54.873Z,102524.94
2019-02-15T21:47:27.329Z,102517.25
2019-02-15T21:50:00.326Z,102510.70
2019-02-15T21:52:32.669Z,102517.26
2019-02-15T21:55:05.571Z,102513.09
2019-02-15T21:57:37.710Z,102513.14
2019-02-15T22:00:13.938Z,102517.53
2019-02-15T22:02:45.699Z,102515.48
2019-02-15T22:05:19.829Z,102508.09
2019-02-15T22:07:51.288Z,102521.28
2019-02-15T22:10:24.395Z,102515.16
2019-02-15T22:12:56.627Z,102513.80
2019-02-15T22:15:28.970Z,102506.12
2019-02-15T22:18:02.567Z,102512.38
2019-02-15T22:20:34.791Z,102502.84
2019-02-15T22:23:06.559Z,102507.44
2019-02-15T22:25:39.728Z,102502.44
2019-02-15T22:28:12.290Z,102497.39
2019-02-15T22:30:44.422Z,102499.77
2019-02-15T22:33:16.980Z,102490.53
2019-02-15T22:35:48.400Z,102488.86
2019-02-15T22:38:20.064Z,102489.84
2019-02-15T22:40:56.542Z,102489.30
2019-02-15T22:43:28.135Z,102484.34
2019-02-15T22:46:00.410Z,102480.38
2019-02-15T22:48:32.261Z,102478.96
2019-02-15T22:51:04.740Z,102478.58
2019-02-15T22:53:36.487Z,102477.08
2019-02-15T22:56:11.000Z,102474.37
2019-02-15T22:58:42.298Z,102468.31
2019-02-15T23:01:19.397Z,102466.52
2019-02-15T23:03:50.981Z,102469.91
2019-02-15T23:06:23.704Z,102469.94
2019-02-15T23:08:56.527Z,102468.57
2019-02-15T23:11:28.265Z,102473.33
2019-02-15T23:14:00.348Z,102472.90
2019-02-15T23:16:32.333Z,102467.11
2019-02-15T23:19:04.636Z,102465.15
2019-02-15T23:21:37.144Z,102456.20
2019-02-15T23:24:08.807Z,102463.78
2019-02-15T23:26:40.706Z,102453.66
2019-02-15T23:29:13.107Z,102460.77
2019-02-15T23:31:44.410Z,102452.27
2019-02-15T23:34:16.282Z,102453.14
2019-02-15T23:36:49.855Z,102451.83
2019-02-15T23:39:21.530Z,102453.69
2019-02-15T23:41:52.706Z,102451.00
2019-02-15T23:44:25.384Z,102454.99
2019-02-15T23:48:41.220Z,102449.55
2019-02-15T23:51:12.459Z,102445.78
2019-02-15T23:53:44.736Z,102443.42
2019-02-15T23:56:16.594Z,102448.48
2019-02-15T23:58:47.920Z,102441.84
